createdAt,value
2018-05-27T00:00:59.305Z,7.75
2018-05-27T00:03:26.772Z,7.55
2018-05-27T00:05:54.239Z,8.23
2018-05-27T00:08:21.693Z,7.82
2018-05-27T00:10:49.141Z,8.43
2018-05-27T00:13:16.601Z,8.38
2018-05-27T00:15:44.042Z,6.87
2018-05-27T00:18:11.498Z,8.18
2018-05-27T00:20:38.961Z,7.18
2018-05-27T00:23:06.417Z,7.80
2018-05-27T00:25:33.870Z,7.43
2018-05-27T00:28:01.335Z,8.10
2018-05-27T00:30:28.842Z,8.10
2018-05-27T00:32:56.306Z,7.85
2018-05-27T00:35:23.756Z,7.22
2018-05-27T00:37:51.202Z,8.45
2018-05-27T00:40:18.659Z,7.85
2018-05-27T00:42:46.098Z,8.10
2018-05-27T00:45:13.561Z,7.62
2018-05-27T00:47:40.989Z,9.13
2018-05-27T00:50:08.448Z,7.90
2018-05-27T00:52:35.907Z,7.80
2018-05-27T00:55:03.372Z,9.13
2018-05-27T00:57:30.829Z,8.43
2018-05-27T00:59:58.281Z,7.70
2018-05-27T01:02:25.733Z,8.27
2018-05-27T01:04:53.205Z,10.05
2018-05-27T01:07:20.645Z,9.75
2018-05-27T01:09:48.118Z,9.48
2018-05-27T01:12:15.564Z,8.18
2018-05-27T01:14:43.025Z,7.90
2018-05-27T01:17:10.475Z,7.72
2018-05-27T01:19:38.000Z,8.30
2018-05-27T01:22:05.446Z,8.32
2018-05-27T01:24:32.924Z,8.73
2018-05-27T01:27:00.386Z,8.13
2018-05-27T01:29:27.860Z,9.10
2018-05-27T01:31:55.314Z,8.32
2018-05-27T01:34:22.777Z,8.57
2018-05-27T01:36:50.253Z,8.63
2018-05-27T01:39:17.715Z,8.35
2018-05-27T01:41:45.175Z,8.52
2018-05-27T01:44:12.625Z,7.75
2018-05-27T01:46:40.084Z,8.43
2018-05-27T01:49:07.546Z,8.43
2018-05-27T01:51:34.996Z,7.80
2018-05-27T01:54:02.439Z,8.95
2018-05-27T01:56:29.947Z,7.53
2018-05-27T01:58:57.412Z,8.27
2018-05-27T02:01:25.646Z,9.30
2018-05-27T02:03:53.107Z,9.02
2018-05-27T02:06:20.571Z,9.80
2018-05-27T02:08:48.032Z,8.77
2018-05-27T02:11:15.574Z,8.65
2018-05-27T02:13:43.033Z,9.18
2018-05-27T02:16:10.518Z,8.50
2018-05-27T02:18:37.985Z,8.68
2018-05-27T02:21:05.451Z,9.30
2018-05-27T02:23:32.899Z,12.75
2018-05-27T02:26:00.383Z,8.95
2018-05-27T02:28:27.851Z,12.20
2018-05-27T02:30:55.322Z,10.00
2018-05-27T02:33:22.761Z,9.20
2018-05-27T02:35:50.221Z,9.45
2018-05-27T02:38:17.681Z,9.98
2018-05-27T02:40:45.131Z,9.93
2018-05-27T02:43:12.584Z,11.93
2018-05-27T02:45:40.072Z,10.57
2018-05-27T02:48:07.524Z,11.70
2018-05-27T02:50:35.002Z,10.25
2018-05-27T02:53:02.468Z,10.35
2018-05-27T02:55:29.936Z,10.32
2018-05-27T02:57:57.426Z,9.75
2018-05-27T03:00:25.658Z,9.88
2018-05-27T03:02:53.119Z,9.70
2018-05-27T03:05:20.574Z,10.02
2018-05-27T03:07:48.043Z,10.25
2018-05-27T03:10:15.493Z,10.27
2018-05-27T03:12:42.954Z,9.40
2018-05-27T03:15:10.405Z,9.00
2018-05-27T03:17:37.869Z,9.88
2018-05-27T03:20:05.329Z,9.85
2018-05-27T03:22:32.791Z,10.25
2018-05-27T03:25:00.239Z,10.40
2018-05-27T03:27:28.601Z,9.98
2018-05-27T03:29:56.072Z,11.20
2018-05-27T03:32:24.292Z,10.75
2018-05-27T03:34:51.743Z,10.52
2018-05-27T03:37:19.219Z,10.85
2018-05-27T03:39:46.680Z,11.40
2018-05-27T03:42:14.154Z,11.25
2018-05-27T03:44:41.615Z,10.88
2018-05-27T03:47:09.094Z,11.45
2018-05-27T03:49:36.556Z,11.23
2018-05-27T03:52:04.018Z,11.27
2018-05-27T03:54:31.474Z,11.80
2018-05-27T03:56:58.958Z,10.27
2018-05-27T03:59:26.423Z,10.68
2018-05-27T04:01:53.888Z,11.10
2018-05-27T04:07:51.380Z,11.32
2018-05-27T04:10:18.842Z,12.77
2018-05-27T04:12:46.336Z,12.18
2018-05-27T04:15:13.955Z,12.68
2018-05-27T04:17:42.212Z,11.20
2018-05-27T04:20:09.685Z,10.38
2018-05-27T04:22:37.928Z,10.38
2018-05-27T04:25:05.407Z,10.95
2018-05-27T04:27:32.876Z,13.52
2018-05-27T04:30:00.339Z,10.73
2018-05-27T04:32:27.810Z,10.70
2018-05-27T04:34:55.257Z,11.32
2018-05-27T04:37:22.706Z,11.35
2018-05-27T04:39:50.176Z,11.40
2018-05-27T04:42:17.635Z,11.38
2018-05-27T04:44:45.101Z,10.93
2018-05-27T04:47:12.552Z,9.88
2018-05-27T04:49:40.026Z,10.68
2018-05-27T04:52:07.485Z,11.40
2018-05-27T04:54:34.970Z,11.60
2018-05-27T04:57:03.214Z,11.63
2018-05-27T04:59:30.695Z,11.48
2018-05-27T05:01:58.171Z,12.20
2018-05-27T05:04:25.626Z,11.07
2018-05-27T05:06:53.144Z,11.32
2018-05-27T05:09:20.604Z,11.65
2018-05-27T05:11:48.067Z,12.18
2018-05-27T05:14:15.538Z,12.05
2018-05-27T05:16:43.039Z,11.68
2018-05-27T05:19:10.503Z,9.95
2018-05-27T05:21:37.959Z,12.20
2018-05-27T05:24:06.270Z,11.12
2018-05-27T05:26:33.808Z,9.77
2018-05-27T05:29:01.300Z,11.70
2018-05-27T05:31:29.562Z,11.43
2018-05-27T05:33:57.028Z,11.35
2018-05-27T05:36:24.560Z,10.73
2018-05-27T05:38:52.760Z,10.23
2018-05-27T05:41:20.232Z,11.85
2018-05-27T05:43:47.706Z,12.85
2018-05-27T05:46:15.172Z,10.23
2018-05-27T05:48:43.409Z,10.45
2018-05-27T05:51:10.874Z,10.07
2018-05-27T05:53:38.333Z,9.63
2018-05-27T05:56:05.824Z,11.32
2018-05-27T05:58:33.279Z,11.43
2018-05-27T06:01:00.756Z,11.07
2018-05-27T06:03:28.991Z,10.30
2018-05-27T06:05:56.468Z,11.98
2018-05-27T06:08:23.962Z,11.35
2018-05-27T06:10:52.201Z,11.65
2018-05-27T06:13:19.659Z,11.27
2018-05-27T06:15:47.152Z,11.00
2018-05-27T06:18:14.615Z,10.23
2018-05-27T06:20:42.092Z,11.07
2018-05-27T06:23:10.314Z,11.27
2018-05-27T06:25:37.796Z,10.68
2018-05-27T06:28:06.243Z,10.68
2018-05-27T06:30:34.527Z,10.95
2018-05-27T06:33:01.989Z,10.55
2018-05-27T06:35:29.861Z,11.35
2018-05-27T06:37:57.333Z,10.38
2018-05-27T06:40:25.577Z,10.70
2018-05-27T06:42:53.039Z,11.52
2018-05-27T06:45:20.515Z,11.00
2018-05-27T06:47:48.760Z,11.60
2018-05-27T06:50:16.211Z,10.77
2018-05-27T06:52:43.670Z,11.23
2018-05-27T06:55:11.147Z,11.27
2018-05-27T06:57:38.609Z,11.00
2018-05-27T07:00:06.083Z,11.48
2018-05-27T07:02:33.567Z,11.50
2018-05-27T07:05:01.800Z,10.35
2018-05-27T07:07:29.272Z,10.95
2018-05-27T07:09:56.735Z,10.40
2018-05-27T07:12:24.216Z,10.80
2018-05-27T07:14:51.681Z,11.18
2018-05-27T07:17:19.148Z,11.48
2018-05-27T07:19:47.382Z,11.60
2018-05-27T07:22:14.860Z,11.27
2018-05-27T07:24:42.320Z,11.52
2018-05-27T07:27:09.792Z,12.15
2018-05-27T07:29:37.254Z,11.07
2018-05-27T07:32:04.717Z,12.40
2018-05-27T07:34:32.206Z,10.48
2018-05-27T07:36:59.629Z,9.50
2018-05-27T07:39:27.090Z,10.73
2018-05-27T07:41:54.565Z,10.73
2018-05-27T07:44:22.016Z,10.48
2018-05-27T07:46:49.479Z,10.95
2018-05-27T07:49:16.949Z,10.88
2018-05-27T07:51:44.426Z,10.15
2018-05-27T07:54:11.900Z,11.02
2018-05-27T07:56:39.376Z,10.20
2018-05-27T07:59:07.621Z,9.77
2018-05-27T08:01:35.100Z,11.23
2018-05-27T08:04:02.541Z,12.63
2018-05-27T08:06:30.015Z,14.05
2018-05-27T08:08:57.493Z,13.00
2018-05-27T08:11:24.971Z,12.55
2018-05-27T08:13:52.424Z,14.02
2018-05-27T08:16:20.649Z,13.18
2018-05-27T08:18:48.127Z,13.38
2018-05-27T08:21:15.597Z,12.77
2018-05-27T08:23:43.063Z,13.02
2018-05-27T08:26:10.516Z,14.55
2018-05-27T08:28:37.978Z,14.43
2018-05-27T08:33:40.072Z,12.25
2018-05-27T08:36:07.531Z,11.93
2018-05-27T08:38:35.003Z,14.00
2018-05-27T08:41:02.464Z,14.52
2018-05-27T08:43:29.956Z,14.45
2018-05-27T08:45:57.467Z,11.93
2018-05-27T08:48:24.935Z,12.48
2018-05-27T08:50:52.408Z,13.32
2018-05-27T08:53:19.879Z,15.82
2018-05-27T08:55:47.349Z,13.73
2018-05-27T08:58:14.837Z,12.10
2018-05-27T09:00:43.048Z,12.63
2018-05-27T09:03:11.287Z,11.70
2018-05-27T09:05:39.511Z,11.88
2018-05-27T09:08:06.986Z,12.63
2018-05-27T09:10:34.451Z,14.65
2018-05-27T09:13:01.925Z,13.30
2018-05-27T09:15:29.392Z,13.38
2018-05-27T09:17:56.868Z,12.37
2018-05-27T09:20:24.343Z,11.98
2018-05-27T09:22:51.809Z,11.57
2018-05-27T09:25:20.057Z,11.43
2018-05-27T09:27:47.509Z,13.38
2018-05-27T09:30:14.987Z,12.02
2018-05-27T09:32:42.442Z,11.85
2018-05-27T09:35:09.903Z,14.35
2018-05-27T09:37:37.373Z,11.98
2018-05-27T09:40:04.841Z,9.52
2018-05-27T09:42:32.301Z,9.52
2018-05-27T09:44:59.781Z,8.98
2018-05-27T09:47:27.258Z,8.95
2018-05-27T09:49:55.494Z,9.85
2018-05-27T09:52:22.977Z,9.63
2018-05-27T09:54:50.445Z,9.88
2018-05-27T09:57:17.898Z,10.38
2018-05-27T09:59:45.439Z,10.38
2018-05-27T10:02:12.910Z,9.75
2018-05-27T10:04:40.382Z,11.32
2018-05-27T10:07:07.836Z,9.68
2018-05-27T10:09:35.662Z,11.48
2018-05-27T10:12:03.121Z,12.10
2018-05-27T10:14:31.364Z,9.32
2018-05-27T10:16:58.812Z,8.35
2018-05-27T10:19:26.296Z,8.60
2018-05-27T10:21:53.749Z,8.10
2018-05-27T10:24:21.202Z,9.93
2018-05-27T10:26:48.682Z,8.07
2018-05-27T10:29:16.149Z,9.77
2018-05-27T10:31:43.636Z,7.97
2018-05-27T10:34:11.828Z,8.15
2018-05-27T10:36:39.294Z,8.20
2018-05-27T10:39:07.742Z,7.57
2018-05-27T10:41:35.199Z,7.12
2018-05-27T10:44:02.663Z,8.20
2018-05-27T10:46:30.128Z,7.28
2018-05-27T10:48:57.583Z,6.60
2018-05-27T10:51:25.047Z,8.65
2018-05-27T10:53:52.491Z,6.43
2018-05-27T10:56:19.951Z,7.62
2018-05-27T10:58:47.412Z,6.85
2018-05-27T11:01:14.895Z,7.12
2018-05-27T11:03:42.338Z,7.55
2018-05-27T11:06:09.799Z,6.62
2018-05-27T11:08:37.257Z,9.77
2018-05-27T11:11:04.733Z,10.30
2018-05-27T11:13:32.185Z,9.52
2018-05-27T11:15:59.733Z,9.15
2018-05-27T11:18:27.236Z,9.45
2018-05-27T11:20:54.719Z,7.85
2018-05-27T11:23:22.181Z,8.63
2018-05-27T11:25:50.429Z,8.55
2018-05-27T11:28:17.879Z,7.70
2018-05-27T11:30:45.340Z,9.18
2018-05-27T11:33:12.834Z,8.45
2018-05-27T11:35:40.292Z,8.50
2018-05-27T11:38:07.752Z,8.88
2018-05-27T11:40:35.192Z,7.35
2018-05-27T11:43:02.681Z,7.78
2018-05-27T11:45:30.131Z,7.55
2018-05-27T11:47:57.594Z,9.13
2018-05-27T11:50:26.436Z,7.47
2018-05-27T11:52:53.917Z,7.80
2018-05-27T11:55:21.418Z,8.20
2018-05-27T11:57:48.866Z,7.45
2018-05-27T12:00:16.338Z,8.10
2018-05-27T12:02:43.797Z,8.30
2018-05-27T12:05:11.280Z,7.50
2018-05-27T12:07:38.749Z,7.05
2018-05-27T12:10:06.193Z,9.60
2018-05-27T12:12:33.641Z,6.62
2018-05-27T12:15:01.105Z,7.68
2018-05-27T12:17:28.554Z,6.93
2018-05-27T12:19:55.989Z,7.80
2018-05-27T12:22:23.436Z,7.15
2018-05-27T12:24:51.674Z,7.43
2018-05-27T12:27:19.147Z,6.15
2018-05-27T12:29:46.668Z,6.15
2018-05-27T12:32:14.078Z,6.97
2018-05-27T12:34:41.530Z,8.15
2018-05-27T12:37:08.985Z,10.35
2018-05-27T12:39:36.432Z,6.18
2018-05-27T12:42:03.891Z,8.00
2018-05-27T12:44:31.372Z,5.57
2018-05-27T12:46:58.829Z,7.97
2018-05-27T12:49:26.281Z,8.80
2018-05-27T12:51:53.737Z,7.37
2018-05-27T12:54:21.212Z,6.25
2018-05-27T12:56:48.681Z,6.05
2018-05-27T12:59:16.143Z,7.12
2018-05-27T13:01:44.587Z,7.65
2018-05-27T13:04:12.056Z,6.60
2018-05-27T13:06:39.513Z,5.85
2018-05-27T13:09:06.979Z,5.22
2018-05-27T13:11:34.424Z,5.87
2018-05-27T13:14:02.658Z,8.68
2018-05-27T13:16:30.159Z,8.00
2018-05-27T13:18:57.575Z,6.18
2018-05-27T13:21:25.998Z,7.32
2018-05-27T13:23:54.239Z,5.30
2018-05-27T13:26:21.691Z,6.05
2018-05-27T13:28:49.152Z,5.32
2018-05-27T13:31:16.835Z,7.12
2018-05-27T13:33:44.304Z,6.35
2018-05-27T13:36:12.295Z,7.07
2018-05-27T13:38:39.819Z,4.40
2018-05-27T13:41:07.273Z,7.78
2018-05-27T13:43:34.747Z,9.05
2018-05-27T13:46:02.194Z,7.65
2018-05-27T13:48:29.679Z,7.05
2018-05-27T13:50:57.133Z,6.05
2018-05-27T13:53:24.586Z,7.65
2018-05-27T13:55:52.968Z,4.72
2018-05-27T13:58:20.423Z,6.45
2018-05-27T14:00:47.893Z,7.57
2018-05-27T14:03:15.349Z,6.32
2018-05-27T14:05:42.817Z,4.87
2018-05-27T14:08:11.235Z,7.95
2018-05-27T14:10:38.695Z,6.47
2018-05-27T14:13:06.164Z,6.68
2018-05-27T14:15:33.696Z,6.22
2018-05-27T14:18:02.038Z,7.70
2018-05-27T14:20:30.281Z,6.75
2018-05-27T14:22:57.753Z,8.18
2018-05-27T14:25:25.202Z,4.78
2018-05-27T14:27:54.873Z,7.00
2018-05-27T14:30:22.333Z,9.38
2018-05-27T14:32:50.546Z,8.10
2018-05-27T14:35:18.192Z,7.12
2018-05-27T14:37:45.666Z,8.40
2018-05-27T14:40:13.147Z,8.80
2018-05-27T14:42:40.600Z,7.30
2018-05-27T14:45:08.061Z,7.20
2018-05-27T14:47:35.510Z,8.35
2018-05-27T14:50:02.975Z,6.82
2018-05-27T14:52:30.434Z,8.15
2018-05-27T14:54:57.905Z,8.27
2018-05-27T14:57:25.388Z,8.88
2018-05-27T14:59:52.862Z,4.47
2018-05-27T15:02:20.337Z,5.50
2018-05-27T15:04:47.796Z,7.87
2018-05-27T15:07:15.245Z,6.25
2018-05-27T15:09:42.696Z,7.43
2018-05-27T15:12:10.257Z,5.18
2018-05-27T15:14:37.627Z,7.45
2018-05-27T15:17:05.089Z,6.97
2018-05-27T15:19:32.548Z,5.28
2018-05-27T15:22:00.015Z,6.18
2018-05-27T15:24:27.471Z,4.80
2018-05-27T15:26:54.990Z,14.77
2018-05-27T15:29:23.192Z,10.77
2018-05-27T15:31:51.446Z,11.85
2018-05-27T15:34:19.664Z,8.30
2018-05-27T15:36:47.106Z,8.45
2018-05-27T15:39:14.576Z,7.18
2018-05-27T15:41:42.029Z,10.18
2018-05-27T15:44:09.508Z,5.82
2018-05-27T15:46:36.987Z,8.10
2018-05-27T15:49:04.457Z,8.23
2018-05-27T15:51:31.940Z,6.87
2018-05-27T15:53:59.390Z,8.50
2018-05-27T15:56:26.845Z,6.05
2018-05-27T15:58:54.326Z,6.50
2018-05-27T16:01:21.790Z,7.03
2018-05-27T16:03:49.286Z,7.12
2018-05-27T16:06:16.735Z,8.52
2018-05-27T16:08:44.981Z,4.68
2018-05-27T16:11:12.453Z,9.15
2018-05-27T16:13:39.922Z,8.18
2018-05-27T16:16:07.369Z,5.22
2018-05-27T16:18:34.829Z,6.30
2018-05-27T16:21:02.285Z,8.32
2018-05-27T16:23:29.745Z,5.43
2018-05-27T16:25:57.200Z,7.75
2018-05-27T16:28:24.672Z,5.62
2018-05-27T16:30:52.110Z,4.93
2018-05-27T16:33:19.562Z,7.35
2018-05-27T16:35:47.024Z,8.60
2018-05-27T16:38:14.470Z,5.45
2018-05-27T16:40:42.766Z,6.18
2018-05-27T16:43:10.182Z,5.85
2018-05-27T16:45:37.647Z,8.77
2018-05-27T16:48:05.109Z,6.55
2018-05-27T16:50:32.576Z,4.45
2018-05-27T16:53:00.045Z,7.22
2018-05-27T16:55:27.561Z,6.10
2018-05-27T16:57:55.040Z,6.50
2018-05-27T17:00:22.511Z,6.75
2018-05-27T17:02:49.936Z,6.68
2018-05-27T17:05:17.399Z,4.97
2018-05-27T17:07:44.871Z,7.25
2018-05-27T17:10:13.118Z,7.78
2018-05-27T17:12:41.346Z,6.70
2018-05-27T17:15:08.836Z,6.87
2018-05-27T17:17:36.292Z,7.28
2018-05-27T17:20:03.752Z,6.47
2018-05-27T17:22:31.198Z,9.57
2018-05-27T17:24:58.669Z,6.93
2018-05-27T17:27:26.198Z,8.15
2018-05-27T17:29:53.677Z,6.20
2018-05-27T17:32:21.911Z,7.75
2018-05-27T17:34:49.374Z,6.12
2018-05-27T17:37:17.620Z,6.93
2018-05-27T17:39:45.106Z,5.85
2018-05-27T17:42:12.556Z,6.12
2018-05-27T17:44:40.023Z,4.87
2018-05-27T17:47:07.555Z,6.05
2018-05-27T17:49:34.998Z,4.75
2018-05-27T17:52:02.461Z,6.30
2018-05-27T17:54:30.691Z,5.93
2018-05-27T17:56:58.154Z,5.43
2018-05-27T17:59:25.628Z,7.05
2018-05-27T18:01:53.850Z,8.68
2018-05-27T18:04:21.326Z,6.25
2018-05-27T18:06:48.774Z,9.10
2018-05-27T18:09:17.004Z,8.07
2018-05-27T18:11:44.481Z,7.82
2018-05-27T18:14:12.692Z,6.45
2018-05-27T18:16:40.159Z,6.68
2018-05-27T18:19:07.624Z,7.15
2018-05-27T18:21:35.102Z,6.12
2018-05-27T18:24:02.559Z,8.27
2018-05-27T18:26:30.011Z,7.75
2018-05-27T18:28:57.467Z,8.60
2018-05-27T18:31:25.034Z,7.78
2018-05-27T18:33:52.489Z,6.65
2018-05-27T18:36:19.974Z,6.55
2018-05-27T18:38:47.453Z,8.70
2018-05-27T18:41:14.911Z,7.07
2018-05-27T18:43:42.370Z,8.70
2018-05-27T18:46:09.837Z,9.88
2018-05-27T18:48:37.292Z,8.50
2018-05-27T18:51:06.678Z,11.12
2018-05-27T18:53:34.124Z,14.90
2018-05-27T18:56:01.582Z,9.52
2018-05-27T18:58:30.777Z,6.72
2018-05-27T19:00:59.032Z,10.48
2018-05-27T19:03:26.479Z,9.27
2018-05-27T19:05:53.941Z,9.23
2018-05-27T19:08:22.373Z,7.97
2018-05-27T19:10:49.863Z,12.52
2018-05-27T19:13:17.337Z,10.07
2018-05-27T19:15:44.807Z,10.02
2018-05-27T19:18:12.254Z,8.35
2018-05-27T19:20:39.709Z,8.52
2018-05-27T19:23:07.167Z,8.25
2018-05-27T19:25:34.624Z,9.93
2018-05-27T19:28:02.070Z,9.60
2018-05-27T19:30:29.553Z,7.90
2018-05-27T19:32:57.013Z,9.65
2018-05-27T19:35:24.551Z,11.10
2018-05-27T19:37:52.781Z,9.50
2018-05-27T19:40:20.254Z,9.50
2018-05-27T19:42:47.726Z,8.05
2018-05-27T19:45:15.195Z,8.85
2018-05-27T19:47:42.676Z,9.63
2018-05-27T19:50:10.937Z,8.90
2018-05-27T19:52:38.446Z,11.85
2018-05-27T19:55:05.920Z,10.35
2018-05-27T19:57:33.381Z,8.52
2018-05-27T20:00:00.810Z,9.07
2018-05-27T20:02:29.049Z,9.00
2018-05-27T20:04:56.508Z,8.07
2018-05-27T20:07:24.022Z,9.80
2018-05-27T20:09:52.302Z,8.35
2018-05-27T20:12:19.724Z,8.60
2018-05-27T20:14:47.205Z,8.65
2018-05-27T20:17:14.656Z,8.57
2018-05-27T20:19:42.125Z,9.07
2018-05-27T20:22:09.589Z,7.70
2018-05-27T20:24:37.051Z,7.82
2018-05-27T20:27:04.531Z,8.45
2018-05-27T20:29:32.759Z,11.02
2018-05-27T20:32:00.231Z,10.00
2018-05-27T20:34:27.708Z,7.95
2018-05-27T20:36:55.165Z,8.43
2018-05-27T20:42:13.753Z,7.97
2018-05-27T20:44:41.200Z,7.85
2018-05-27T20:47:08.653Z,10.90
2018-05-27T20:49:36.140Z,8.27
2018-05-27T20:52:03.598Z,10.48
2018-05-27T20:54:31.079Z,10.95
2018-05-27T20:56:58.608Z,9.65
2018-05-27T20:59:26.081Z,9.35
2018-05-27T21:01:53.535Z,10.18
2018-05-27T21:04:20.980Z,8.75
2018-05-27T21:06:48.432Z,11.73
2018-05-27T21:09:15.891Z,9.93
2018-05-27T21:11:44.110Z,9.48
2018-05-27T21:14:11.597Z,10.38
2018-05-27T21:16:39.812Z,10.43
2018-05-27T21:19:07.303Z,12.35
2018-05-27T21:21:35.519Z,11.07
2018-05-27T21:24:03.743Z,9.00
2018-05-27T21:26:31.197Z,12.32
2018-05-27T21:28:58.649Z,9.38
2018-05-27T21:31:26.109Z,10.75
2018-05-27T21:33:53.576Z,10.98
2018-05-27T21:36:21.044Z,9.77
2018-05-27T21:38:48.526Z,11.68
2018-05-27T21:41:15.996Z,11.10
2018-05-27T21:43:43.471Z,11.38
2018-05-27T21:46:10.936Z,12.10
2018-05-27T21:48:38.355Z,9.52
2018-05-27T21:51:05.823Z,9.65
2018-05-27T21:53:33.287Z,10.90
2018-05-27T21:56:00.815Z,11.80
2018-05-27T21:58:29.076Z,12.85
2018-05-27T22:00:56.576Z,12.75
2018-05-27T22:03:24.791Z,14.85
2018-05-27T22:05:52.265Z,11.57
2018-05-27T22:08:19.777Z,11.73
2018-05-27T22:10:48.009Z,13.60
2018-05-27T22:13:15.469Z,12.55
2018-05-27T22:15:42.959Z,14.30
2018-05-27T22:18:11.198Z,12.30
2018-05-27T22:20:38.652Z,13.13
2018-05-27T22:23:06.118Z,11.82
2018-05-27T22:25:33.580Z,13.48
2018-05-27T22:28:01.048Z,11.45
2018-05-27T22:30:28.535Z,14.15
2018-05-27T22:32:56.000Z,11.88
2018-05-27T22:35:23.474Z,12.35
2018-05-27T22:37:50.931Z,13.07
2018-05-27T22:40:18.398Z,14.38
2018-05-27T22:42:45.873Z,12.55
2018-05-27T22:45:14.279Z,12.98
2018-05-27T22:47:41.735Z,12.90
2018-05-27T22:50:09.212Z,13.00
2018-05-27T22:52:37.451Z,13.85
2018-05-27T22:55:05.689Z,14.27
2018-05-27T22:57:33.149Z,15.20
2018-05-27T23:00:00.595Z,14.27
2018-05-27T23:02:28.065Z,18.62
2018-05-27T23:04:55.528Z,13.85
2018-05-27T23:07:23.012Z,14.82
2018-05-27T23:09:50.433Z,14.68
2018-05-27T23:12:17.880Z,14.73
2018-05-27T23:14:45.324Z,14.48
2018-05-27T23:17:12.802Z,15.23
2018-05-27T23:19:40.245Z,15.70
2018-05-27T23:22:07.691Z,14.32
2018-05-27T23:24:35.162Z,14.02
2018-05-27T23:27:02.624Z,13.75
2018-05-27T23:29:30.074Z,13.75
2018-05-27T23:31:57.535Z,14.30
2018-05-27T23:34:24.988Z,14.55
2018-05-27T23:36:52.514Z,14.77
2018-05-27T23:39:19.917Z,15.18
2018-05-27T23:41:47.388Z,15.50
2018-05-27T23:44:14.842Z,14.45
2018-05-27T23:46:42.284Z,15.82
2018-05-27T23:49:09.742Z,15.57
2018-05-27T23:51:37.197Z,14.35
2018-05-27T23:54:04.661Z,14.57
2018-05-27T23:56:32.105Z,15.27
2018-05-27T23:58:59.560Z,14.93
